Time;durP1;ratioP1;P1;durP2;ratioP2;P2;SDS_P1;SDS_P2;PMS_P1;PMS_P2;Temp;Humidity;BMP_temperature;BMP_pressure;BME280_temperature;BME280_humidity;BME280_pressure;Samples;Min_cycle;Max_cycle;Signal;HPM_P1;HPM_P2
2021/07/23 00:00:52;;;;;;;0.10;0.10;;;;;;;21.59;49.35;98984.47;5030156;28;20025;-79
2021/07/23 00:03:19;;;;;;;0.10;0.10;;;;;;;21.58;49.26;98991.84;5029672;28;20560;-79
2021/07/23 00:05:44;;;;;;;0.10;0.10;;;;;;;21.57;49.37;98987.53;5029984;28;20091;-80
2021/07/23 00:08:10;;;;;;;0.25;0.25;;;;;;;21.54;49.66;98981.97;5029582;28;20047;-82
2021/07/23 00:10:36;;;;;;;0.10;0.10;;;;;;;21.52;49.91;98990.50;5030064;28;20061;-80
2021/07/23 00:13:01;;;;;;;0.10;0.10;;;;;;;21.50;49.69;98984.63;5029746;28;20030;-78
2021/07/23 00:15:27;;;;;;;0.00;0.00;;;;;;;21.47;49.87;98984.53;5030049;28;20033;-78
2021/07/23 00:17:52;;;;;;;0.10;0.10;;;;;;;21.45;49.97;98990.31;5030039;28;20033;-78
2021/07/23 00:20:18;;;;;;;0.00;0.00;;;;;;;21.40;50.30;98993.31;5029396;28;20129;-78
2021/07/23 00:22:43;;;;;;;0.10;0.10;;;;;;;21.35;50.13;98990.81;5029605;28;20049;-78
2021/07/23 00:25:09;;;;;;;0.00;0.00;;;;;;;21.30;50.30;98991.09;5029399;28;20050;-79
2021/07/23 00:27:35;;;;;;;0.10;0.10;;;;;;;21.28;50.26;98983.28;5029904;28;20030;-81
2021/07/23 00:30:03;;;;;;;0.10;0.10;;;;;;;21.25;50.33;98995.66;5029568;28;20047;-81
2021/07/23 00:32:28;;;;;;;0.10;0.10;;;;;;;21.21;50.32;98993.97;5029546;28;20465;-79
2021/07/23 00:34:54;;;;;;;0.10;0.10;;;;;;;21.18;50.12;98990.03;5029678;28;20057;-78
2021/07/23 00:37:19;;;;;;;0.10;0.10;;;;;;;21.15;50.36;98987.22;5029105;28;20116;-81
2021/07/23 00:39:44;;;;;;;0.10;0.10;;;;;;;21.11;50.17;98987.91;5029641;28;20030;-84
2021/07/23 00:42:10;;;;;;;0.20;0.20;;;;;;;21.08;50.37;98985.88;5029471;28;20022;-79
2021/07/23 00:44:35;;;;;;;0.08;0.08;;;;;;;21.02;50.32;98983.75;5032245;28;20033;-81
2021/07/23 00:47:01;;;;;;;0.10;0.10;;;;;;;20.97;50.44;98984.81;5033110;28;20029;-77
2021/07/23 00:49:27;;;;;;;0.00;0.00;;;;;;;20.93;50.75;98984.72;5034817;28;20060;-79
2021/07/23 00:51:53;;;;;;;0.00;0.00;;;;;;;20.90;50.70;98985.41;5032792;28;20022;-77
2021/07/23 00:54:19;;;;;;;0.10;0.10;;;;;;;20.89;50.74;98983.81;5034127;28;20492;-80
2021/07/23 00:56:45;;;;;;;0.00;0.00;;;;;;;20.87;50.73;98972.53;5037344;28;20488;-84
2021/07/23 00:59:11;;;;;;;0.00;0.00;;;;;;;20.84;50.75;98975.91;5033437;28;20067;-82
2021/07/23 01:01:37;;;;;;;0.00;0.00;;;;;;;20.85;50.81;98974.78;5033448;28;20029;-85
2021/07/23 01:04:03;;;;;;;0.10;0.10;;;;;;;20.82;50.68;98971.97;5033217;28;20025;-78
2021/07/23 01:06:29;;;;;;;0.10;0.10;;;;;;;20.78;50.85;98974.59;5033098;28;20029;-83
2021/07/23 01:08:55;;;;;;;0.10;0.10;;;;;;;20.74;50.81;98973.72;5033290;28;20040;-83
2021/07/23 01:11:23;;;;;;;0.10;0.10;;;;;;;20.72;50.99;98984.13;5032846;28;20124;-84
2021/07/23 01:13:49;;;;;;;0.20;0.20;;;;;;;20.68;51.10;98972.31;5032699;28;20032;-82
2021/07/23 01:16:15;;;;;;;0.10;0.10;;;;;;;20.66;50.96;98971.91;5032473;28;20434;-83
2021/07/23 01:18:42;;;;;;;0.30;0.30;;;;;;;20.62;50.79;98964.41;5032589;28;20061;-77
2021/07/23 01:21:08;;;;;;;0.10;0.10;;;;;;;20.60;51.11;98971.34;5031595;28;20026;-78
2021/07/23 01:23:35;;;;;;;0.10;0.10;;;;;;;20.56;51.22;98968.50;5032502;28;20036;-76
2021/07/23 01:26:04;;;;;;;0.10;0.10;;;;;;;20.51;51.07;98974.19;5033816;28;20135;-79
2021/07/23 01:28:32;;;;;;;0.10;0.10;;;;;;;20.45;51.51;98962.78;5033686;28;20045;-80
2021/07/23 01:30:58;;;;;;;0.10;0.10;;;;;;;20.41;51.30;98966.50;5032479;28;20052;-79
2021/07/23 01:33:25;;;;;;;0.10;0.10;;;;;;;20.35;51.31;98962.47;5032430;28;20475;-80
2021/07/23 01:35:51;;;;;;;0.10;0.10;;;;;;;20.35;51.16;98957.03;5032144;28;20029;-77
2021/07/23 01:38:19;;;;;;;0.32;0.32;;;;;;;20.29;51.57;98953.78;5031960;28;20061;-78
2021/07/23 01:40:46;;;;;;;0.10;0.10;;;;;;;20.25;51.79;98959.09;5032378;28;20022;-77
2021/07/23 01:43:13;;;;;;;0.65;0.65;;;;;;;20.22;51.71;98956.28;5031979;28;20033;-77
2021/07/23 01:45:39;;;;;;;0.30;0.30;;;;;;;20.19;52.03;98956.94;5033068;28;20148;-77
2021/07/23 01:48:05;;;;;;;0.05;0.05;;;;;;;20.14;51.90;98950.63;5031769;28;20678;-75
2021/07/23 01:50:30;;;;;;;0.10;0.10;;;;;;;20.10;51.76;98948.94;5032931;28;20037;-75
2021/07/23 01:52:55;;;;;;;0.10;0.10;;;;;;;20.11;51.82;98948.59;5031914;28;20032;-75
2021/07/23 01:55:21;;;;;;;0.08;0.08;;;;;;;20.13;51.91;98959.13;5032319;28;20037;-77
2021/07/23 01:57:46;;;;;;;0.15;0.15;;;;;;;20.10;51.93;98952.47;5031515;28;20029;-77
2021/07/23 02:00:12;;;;;;;0.30;0.22;;;;;;;20.09;51.96;98952.78;5031578;28;20029;-78
2021/07/23 02:02:38;;;;;;;0.10;0.10;;;;;;;20.05;52.06;98960.81;5031748;28;20156;-77
2021/07/23 02:05:04;;;;;;;0.13;0.13;;;;;;;20.04;52.07;98947.59;5031176;28;20033;-77
2021/07/23 02:07:29;;;;;;;0.10;0.10;;;;;;;19.99;52.12;98949.44;5031453;28;20026;-78
2021/07/23 02:09:55;;;;;;;0.10;0.10;;;;;;;19.97;52.23;98948.97;5031632;28;20028;-78
2021/07/23 02:12:20;;;;;;;0.10;0.10;;;;;;;19.96;52.10;98946.59;5031234;28;20026;-78
2021/07/23 02:14:46;;;;;;;0.00;0.00;;;;;;;19.96;52.08;98941.94;5031303;28;20026;-77
2021/07/23 02:17:13;;;;;;;0.10;0.10;;;;;;;19.94;52.00;98951.56;5032506;28;20112;-76
2021/07/23 02:19:39;;;;;;;0.38;0.38;;;;;;;19.94;51.91;98946.91;5032587;28;20041;-76
2021/07/23 02:22:05;;;;;;;0.10;0.10;;;;;;;19.96;52.13;98949.31;5032647;28;20033;-76
2021/07/23 02:24:30;;;;;;;0.10;0.10;;;;;;;19.91;52.10;98944.91;5031208;28;20087;-76
2021/07/23 02:26:56;;;;;;;0.10;0.10;;;;;;;19.90;52.08;98956.88;5031205;28;20025;-76
2021/07/23 02:29:21;;;;;;;0.10;0.10;;;;;;;19.91;51.95;98953.03;5031942;28;20026;-77
2021/07/23 02:31:47;;;;;;;0.00;0.00;;;;;;;19.91;52.08;98960.38;5032321;28;20449;-75
2021/07/23 02:34:12;;;;;;;0.75;0.70;;;;;;;19.86;52.27;98969.56;5031798;28;20540;-76
2021/07/23 02:36:38;;;;;;;0.10;0.10;;;;;;;19.74;52.49;98974.94;5032305;28;20496;-76
2021/07/23 02:39:04;;;;;;;0.10;0.10;;;;;;;19.71;52.44;98979.13;5030881;28;20037;-77
2021/07/23 02:41:29;;;;;;;0.10;0.10;;;;;;;19.68;52.85;98964.31;5030630;28;20028;-76
2021/07/23 02:43:54;;;;;;;0.98;0.65;;;;;;;19.67;53.03;98976.28;5032018;28;20067;-76
2021/07/23 02:46:20;;;;;;;0.10;0.10;;;;;;;19.67;53.16;98976.28;5032124;28;20488;-76
2021/07/23 02:48:45;;;;;;;0.05;0.05;;;;;;;19.67;53.02;98976.28;5030104;28;20087;-76
2021/07/23 02:51:11;;;;;;;0.43;0.30;;;;;;;19.67;52.89;98970.88;5030508;28;20091;-75
2021/07/23 02:53:37;;;;;;;0.10;0.10;;;;;;;19.70;52.73;98971.31;5032132;28;20061;-77
2021/07/23 02:56:02;;;;;;;0.10;0.10;;;;;;;19.70;52.94;98982.19;5030535;28;20116;-78
2021/07/23 02:58:27;;;;;;;0.00;0.00;;;;;;;19.70;52.96;98968.63;5030346;28;20025;-77
2021/07/23 03:00:53;;;;;;;0.00;0.00;;;;;;;19.71;53.20;98960.13;5031753;28;20104;-77
2021/07/23 03:03:18;;;;;;;0.03;0.03;;;;;;;19.74;53.56;98961.38;5030465;28;20546;-76
2021/07/23 03:05:44;;;;;;;0.10;0.10;;;;;;;19.77;53.33;98960.72;5030798;28;20032;-83
2021/07/23 03:08:09;;;;;;;0.00;0.00;;;;;;;19.80;53.16;98963.53;5029596;28;20030;-78
2021/07/23 03:10:35;;;;;;;0.10;0.10;;;;;;;19.85;53.20;98967.97;5030568;28;20122;-79
2021/07/23 03:13:00;;;;;;;0.00;0.00;;;;;;;19.87;53.31;98962.97;5030579;28;20048;-79
2021/07/23 03:15:25;;;;;;;0.03;0.03;;;;;;;19.92;53.18;98961.97;5030361;28;20036;-79
2021/07/23 03:17:51;;;;;;;0.10;0.10;;;;;;;19.96;52.78;98957.47;5030128;28;20458;-81
2021/07/23 03:20:16;;;;;;;0.10;0.10;;;;;;;19.99;52.62;98963.00;5030172;28;20030;-80
2021/07/23 03:22:42;;;;;;;0.10;0.10;;;;;;;20.01;52.50;98962.66;5029736;28;20550;-78
2021/07/23 03:25:08;;;;;;;0.00;0.00;;;;;;;20.07;52.66;98965.94;5031203;28;20075;-78
2021/07/23 03:27:33;;;;;;;0.00;0.00;;;;;;;20.11;52.55;98973.03;5031855;28;20476;-79
2021/07/23 03:29:59;;;;;;;0.00;0.00;;;;;;;20.16;52.66;98966.56;5029874;28;20090;-79
2021/07/23 03:32:24;;;;;;;0.10;0.10;;;;;;;20.23;52.54;98977.66;5029906;28;20060;-79
2021/07/23 03:34:50;;;;;;;0.03;0.03;;;;;;;20.28;52.24;98965.78;5030457;28;20025;-78
2021/07/23 03:37:15;;;;;;;0.00;0.00;;;;;;;20.40;52.49;98973.88;5031397;28;20480;-78
2021/07/23 03:39:41;;;;;;;0.10;0.10;;;;;;;20.62;52.07;98977.22;5029603;28;20033;-77
2021/07/23 03:42:06;;;;;;;0.00;0.00;;;;;;;20.85;51.54;98979.41;5029914;28;20108;-80
2021/07/23 03:44:32;;;;;;;0.00;0.00;;;;;;;21.15;50.98;98989.94;5029885;28;20036;-79
2021/07/23 03:46:57;;;;;;;0.00;0.00;;;;;;;21.49;50.17;98987.69;5029508;28;20037;-77
2021/07/23 03:49:22;;;;;;;0.10;0.10;;;;;;;21.81;49.15;98983.03;5029239;28;20116;-78
2021/07/23 03:51:48;;;;;;;0.10;0.10;;;;;;;22.12;48.66;98986.88;5029326;28;20034;-80
2021/07/23 03:54:13;;;;;;;0.03;0.03;;;;;;;22.30;47.77;98987.28;5029799;28;20116;-77
2021/07/23 03:56:38;;;;;;;0.10;0.10;;;;;;;22.51;47.18;98989.69;5030002;28;20032;-83
2021/07/23 03:59:05;;;;;;;0.20;0.20;;;;;;;22.68;46.60;98988.47;5029385;28;20049;-81
2021/07/23 04:01:30;;;;;;;0.10;0.10;;;;;;;22.90;46.18;98993.53;5029456;28;20029;-77
2021/07/23 04:03:56;;;;;;;0.10;0.10;;;;;;;23.15;45.63;98985.84;5029111;28;20032;-76
2021/07/23 04:06:21;;;;;;;0.45;0.45;;;;;;;23.40;44.97;98988.22;5030059;28;20030;-77
2021/07/23 04:08:47;;;;;;;0.10;0.10;;;;;;;23.60;44.26;98991.69;5028989;28;20071;-76
2021/07/23 04:11:16;;;;;;;0.10;0.10;;;;;;;23.65;44.46;98983.97;5031013;28;20026;-78
2021/07/23 04:13:43;;;;;;;0.10;0.10;;;;;;;23.75;44.46;98993.50;5028959;28;20083;-77
2021/07/23 04:16:09;;;;;;;0.08;0.08;;;;;;;23.77;44.62;98993.16;5030855;28;20041;-78
2021/07/23 04:18:34;;;;;;;1.50;1.40;;;;;;;23.77;44.27;98988.47;5029823;28;20036;-74
2021/07/23 04:21:04;;;;;;;0.20;0.20;;;;;;;23.69;44.32;98994.94;5022059;28;20030;-77
2021/07/23 04:23:30;;;;;;;0.00;0.00;;;;;;;23.53;44.52;98999.78;5028310;28;20049;-80
2021/07/23 04:25:55;;;;;;;0.03;0.03;;;;;;;23.32;45.06;99004.47;5026835;28;20547;-79
2021/07/23 04:28:21;;;;;;;0.10;0.10;;;;;;;23.13;45.70;99005.28;5033398;28;20029;-79
2021/07/23 04:30:46;;;;;;;0.13;0.13;;;;;;;22.95;46.08;99006.88;5023456;28;20033;-83
2021/07/23 04:33:11;;;;;;;0.20;0.20;;;;;;;22.72;46.84;99007.63;5020780;28;20124;-82
2021/07/23 04:35:37;;;;;;;0.30;0.30;;;;;;;22.54;47.26;99012.69;5013308;28;20069;-82
2021/07/23 04:38:02;;;;;;;0.00;0.00;;;;;;;22.42;47.91;99007.38;5013392;28;20021;-82
2021/07/23 04:40:28;;;;;;;0.10;0.10;;;;;;;22.27;48.13;99003.53;5013244;28;20041;-82
2021/07/23 04:42:53;;;;;;;0.10;0.10;;;;;;;22.19;48.10;99014.28;5013430;28;20026;-82
2021/07/23 04:45:19;;;;;;;0.10;0.10;;;;;;;22.17;48.22;99011.09;5013444;28;20037;-82
2021/07/23 04:47:44;;;;;;;0.00;0.00;;;;;;;22.13;48.36;99009.44;5013535;28;20029;-82
2021/07/23 04:50:10;;;;;;;0.45;0.22;;;;;;;22.28;48.83;99002.38;5013688;28;20501;-82
2021/07/23 04:52:35;;;;;;;0.00;0.00;;;;;;;22.62;48.53;99008.16;5013088;28;20488;-82
2021/07/23 04:55:07;;;;;;;0.00;0.00;;;;;;;23.00;46.71;99012.06;5013374;28;20040;-83
2021/07/23 04:57:33;;;;;;;0.10;0.10;;;;;;;23.36;45.89;99011.94;5013279;28;20515;-82
2021/07/23 04:59:59;;;;;;;0.20;0.20;;;;;;;23.73;45.02;99012.19;5013567;28;20137;-82
2021/07/23 05:02:24;;;;;;;0.00;0.00;;;;;;;24.13;44.28;99004.63;5012813;28;20057;-83
2021/07/23 05:04:51;;;;;;;0.00;0.00;;;;;;;24.56;43.07;98999.75;5013618;28;20476;-83
2021/07/23 05:07:16;;;;;;;0.17;0.05;;;;;;;24.87;42.64;99002.47;5013202;28;20029;-82
2021/07/23 05:09:42;;;;;;;0.00;0.00;;;;;;;25.06;42.25;99005.03;5013072;28;20044;-83
2021/07/23 05:12:07;;;;;;;0.93;0.93;;;;;;;25.19;41.66;99002.03;5012759;28;20026;-81
2021/07/23 05:14:33;;;;;;;0.00;0.00;;;;;;;25.34;41.69;99000.22;5012799;28;20073;-82
2021/07/23 05:16:59;;;;;;;0.00;0.00;;;;;;;25.55;40.57;98999.66;5012676;28;20371;-82
2021/07/23 05:19:25;;;;;;;0.00;0.00;;;;;;;25.71;40.40;99000.16;5012667;28;20612;-82
2021/07/23 05:21:51;;;;;;;0.10;0.10;;;;;;;25.82;39.77;98996.75;5012986;28;20045;-82
2021/07/23 05:24:16;;;;;;;0.20;0.20;;;;;;;25.82;39.68;99002.22;5012530;28;20508;-83
2021/07/23 05:26:42;;;;;;;0.20;0.20;;;;;;;25.90;39.89;99006.56;5012815;28;20036;-82
2021/07/23 05:29:09;;;;;;;0.00;0.00;;;;;;;26.11;39.48;99000.47;5012549;28;20114;-82
2021/07/23 05:31:35;;;;;;;0.00;0.00;;;;;;;26.43;38.91;98997.13;5011520;28;20053;-82
2021/07/23 05:34:03;;;;;;;0.00;0.00;;;;;;;26.80;38.34;99000.81;5012437;28;20044;-82
2021/07/23 05:36:29;;;;;;;0.00;0.00;;;;;;;27.28;37.55;99006.03;5012461;28;20022;-83
2021/07/23 05:38:54;;;;;;;0.55;0.35;;;;;;;27.73;36.67;99002.94;5012548;28;20030;-82
2021/07/23 05:41:20;;;;;;;0.00;0.00;;;;;;;28.27;36.11;99002.88;5011791;28;20120;-82
2021/07/23 05:43:46;;;;;;;0.05;0.05;;;;;;;28.69;35.52;99005.13;5012321;28;20030;-83
2021/07/23 05:46:11;;;;;;;0.00;0.00;;;;;;;29.20;34.58;98992.66;5012358;28;20026;-83
2021/07/23 05:48:38;;;;;;;0.00;0.00;;;;;;;29.51;33.99;99003.84;5012094;28;20473;-82
2021/07/23 05:51:05;;;;;;;0.33;0.33;;;;;;;30.00;32.91;99000.31;5012350;28;20034;-82
2021/07/23 05:53:31;;;;;;;0.00;0.00;;;;;;;30.21;32.54;98995.75;5012529;28;20261;-82
2021/07/23 05:56:00;;;;;;;0.73;0.73;;;;;;;30.40;32.27;99000.66;5012487;28;20069;-82
2021/07/23 05:58:27;;;;;;;0.10;0.10;;;;;;;30.59;31.92;98995.72;5011867;28;20022;-84
2021/07/23 06:00:53;;;;;;;0.20;0.20;;;;;;;30.70;31.75;98998.34;5012331;28;20030;-83
2021/07/23 06:03:18;;;;;;;0.05;0.05;;;;;;;30.66;31.65;98995.66;5012078;28;20060;-83
2021/07/23 06:05:43;;;;;;;0.20;0.20;;;;;;;30.53;31.46;98998.19;5011956;28;20053;-83
2021/07/23 06:08:09;;;;;;;0.38;0.30;;;;;;;30.52;31.88;98996.63;5011954;28;20036;-84
2021/07/23 06:10:34;;;;;;;0.15;0.15;;;;;;;30.56;31.95;98988.28;5011610;28;20065;-83
2021/07/23 06:13:00;;;;;;;0.10;0.10;;;;;;;30.75;31.03;98995.13;5013594;28;20451;-84
2021/07/23 06:15:25;;;;;;;0.10;0.10;;;;;;;30.70;30.93;98990.88;5016488;28;20049;-83
2021/07/23 06:17:51;;;;;;;0.13;0.13;;;;;;;30.81;31.25;98994.28;5016637;28;20417;-83
2021/07/23 06:20:16;;;;;;;0.20;0.20;;;;;;;30.86;31.19;99001.31;5021090;28;20030;-83
2021/07/23 06:22:42;;;;;;;0.32;0.25;;;;;;;30.85;30.46;99002.50;5021258;28;20436;-84
2021/07/23 06:25:08;;;;;;;0.10;0.10;;;;;;;30.72;29.65;98990.44;5028482;28;20085;-85
2021/07/23 06:27:33;;;;;;;0.10;0.10;;;;;;;30.59;29.21;99004.81;5031741;28;20025;-84
2021/07/23 06:29:58;;;;;;;0.45;0.43;;;;;;;30.48;30.24;98998.59;5012969;28;20548;-82
2021/07/23 06:32:26;;;;;;;0.45;0.30;;;;;;;30.48;30.21;98999.38;5011995;28;20478;-83
2021/07/23 06:34:52;;;;;;;0.25;0.25;;;;;;;30.30;30.02;99004.34;5012044;28;20116;-84
2021/07/23 06:37:20;;;;;;;0.03;0.03;;;;;;;30.12;31.07;99008.06;5011515;28;20032;-82
2021/07/23 06:39:47;;;;;;;0.28;0.20;;;;;;;30.21;30.92;98995.75;5011509;28;20037;-83
2021/07/23 06:42:13;;;;;;;0.38;0.38;;;;;;;30.07;30.68;98994.72;5011557;28;20482;-83
2021/07/23 06:44:38;;;;;;;0.10;0.10;;;;;;;30.01;31.07;99004.63;5011594;28;20068;-83
2021/07/23 06:47:03;;;;;;;1.17;0.65;;;;;;;29.86;31.03;99004.75;5011438;28;20485;-86
2021/07/23 06:49:29;;;;;;;1.02;1.02;;;;;;;29.71;31.51;99003.28;5011238;28;20032;-82
2021/07/23 06:51:54;;;;;;;0.10;0.10;;;;;;;29.60;31.41;99000.66;5011388;28;20030;-83
2021/07/23 06:54:20;;;;;;;0.75;0.20;;;;;;;29.50;32.21;99004.25;5011257;28;20034;-83
2021/07/23 06:56:45;;;;;;;0.32;0.32;;;;;;;29.45;32.19;99005.47;5011560;28;20121;-85
2021/07/23 06:59:11;;;;;;;0.00;0.00;;;;;;;29.28;31.97;99001.63;5010984;28;20037;-83
2021/07/23 07:01:36;;;;;;;0.38;0.38;;;;;;;29.05;32.67;99004.94;5011041;28;20034;-85
2021/07/23 07:04:01;;;;;;;0.30;0.30;;;;;;;28.91;32.17;99008.56;5011119;28;20040;-86
2021/07/23 07:06:27;;;;;;;0.80;0.47;;;;;;;28.83;32.42;99007.81;5010890;28;20040;-83
2021/07/23 07:08:52;;;;;;;0.00;0.00;;;;;;;28.83;32.73;99009.78;5011233;28;20030;-85
2021/07/23 07:11:17;;;;;;;0.20;0.20;;;;;;;28.68;33.00;99007.09;5011125;28;20037;-87
2021/07/23 07:13:43;;;;;;;0.08;0.08;;;;;;;28.64;33.23;99006.28;5010896;28;20021;-84
2021/07/23 07:16:10;;;;;;;0.60;0.45;;;;;;;28.62;33.67;99002.38;5010766;28;20121;-87
2021/07/23 07:18:36;;;;;;;0.88;0.88;;;;;;;28.41;33.61;98995.78;5010558;28;20045;-86
2021/07/23 07:21:01;;;;;;;0.13;0.13;;;;;;;28.25;33.68;98997.00;5011148;28;20580;-83
2021/07/23 07:23:26;;;;;;;0.30;0.30;;;;;;;28.22;34.08;99002.50;5010569;28;20025;-82
2021/07/23 07:25:52;;;;;;;2.22;0.77;;;;;;;28.25;33.93;98993.47;5010580;28;20042;-83
2021/07/23 07:28:17;;;;;;;0.13;0.13;;;;;;;28.23;34.42;98993.06;5010881;28;20053;-83
2021/07/23 07:30:46;;;;;;;1.13;1.02;;;;;;;28.27;34.22;99007.59;5010552;28;20065;-83
2021/07/23 07:33:11;;;;;;;0.20;0.20;;;;;;;28.07;33.84;99001.75;5010729;28;20117;-84
2021/07/23 07:35:37;;;;;;;0.70;0.40;;;;;;;27.95;34.24;98995.47;5010520;28;20068;-87
2021/07/23 07:38:03;;;;;;;0.10;0.10;;;;;;;27.95;34.27;98989.97;5010594;28;20026;-84
2021/07/23 07:40:28;;;;;;;0.03;0.03;;;;;;;27.84;34.22;98994.69;5010009;28;20033;-85
2021/07/23 07:42:54;;;;;;;0.30;0.30;;;;;;;27.88;34.81;98989.97;5010403;28;20076;-86
2021/07/23 07:45:19;;;;;;;0.00;0.00;;;;;;;27.77;34.95;98991.94;5010172;28;20524;-86
2021/07/23 07:47:44;;;;;;;0.20;0.20;;;;;;;27.68;34.79;98994.31;5010174;28;20116;-83
2021/07/23 07:50:10;;;;;;;0.00;0.00;;;;;;;27.54;34.88;98992.34;5010486;28;20501;-86
2021/07/23 07:52:36;;;;;;;0.47;0.30;;;;;;;27.47;35.15;98991.16;5009700;28;20129;-86
2021/07/23 07:55:01;;;;;;;0.08;0.08;;;;;;;27.40;35.26;98990.34;5010468;28;20037;-86
2021/07/23 07:57:26;;;;;;;0.20;0.20;;;;;;;27.26;35.32;99000.16;5010537;28;20032;-83
2021/07/23 07:59:52;;;;;;;0.20;0.20;;;;;;;27.12;35.42;98995.44;5010421;28;20148;-84
2021/07/23 08:02:18;;;;;;;0.30;0.30;;;;;;;27.08;35.63;98996.59;5010348;28;20379;-83
2021/07/23 08:04:43;;;;;;;0.03;0.03;;;;;;;27.19;35.54;98991.13;5010018;28;20033;-83
2021/07/23 08:07:10;;;;;;;0.00;0.00;;;;;;;27.28;35.31;98997.00;5010188;28;20030;-84
2021/07/23 08:09:53;;;;;;;0.50;0.50;;;;;;;27.28;36.00;98994.25;5010120;28;20034;-84
2021/07/23 08:12:19;;;;;;;0.82;0.50;;;;;;;27.31;35.72;98998.97;5010024;28;20030;-83
2021/07/23 08:14:45;;;;;;;0.10;0.10;;;;;;;27.28;35.83;98988.78;5009983;28;20453;-85
2021/07/23 08:17:10;;;;;;;0.15;0.15;;;;;;;27.25;36.49;98982.09;5010021;28;20069;-83
2021/07/23 08:19:37;;;;;;;0.50;0.50;;;;;;;27.22;35.86;98980.16;5009883;28;20030;-83
2021/07/23 08:22:04;;;;;;;0.20;0.20;;;;;;;27.26;35.19;98991.13;5009937;28;20552;-87
2021/07/23 08:24:30;;;;;;;0.00;0.00;;;;;;;27.19;36.32;98977.41;5009517;28;20026;-83
2021/07/23 08:26:56;;;;;;;0.20;0.20;;;;;;;27.21;35.64;98978.56;5009715;28;20087;-83
2021/07/23 08:29:22;;;;;;;1.23;1.13;;;;;;;27.13;35.83;98977.00;5010308;28;20121;-82
2021/07/23 08:31:48;;;;;;;13.80;1.60;;;;;;;27.25;36.09;98982.09;5009780;28;20571;-83
2021/07/23 08:34:16;;;;;;;0.20;0.20;;;;;;;27.36;35.77;98970.34;5009839;28;20092;-83
2021/07/23 08:36:43;;;;;;;0.47;0.47;;;;;;;27.44;35.04;98971.94;5009713;28;20026;-84
2021/07/23 08:39:11;;;;;;;0.10;0.10;;;;;;;27.48;35.11;98967.25;5009770;28;20040;-84
2021/07/23 08:41:39;;;;;;;0.00;0.00;;;;;;;27.45;34.93;98966.06;5009417;28;20504;-85
2021/07/23 08:44:09;;;;;;;0.40;0.40;;;;;;;27.32;34.98;98968.38;5009697;28;20037;-82
2021/07/23 08:46:39;;;;;;;0.30;0.30;;;;;;;27.27;35.78;98952.31;5009578;28;20029;-83
2021/07/23 08:49:09;;;;;;;0.47;0.47;;;;;;;27.22;35.00;98969.16;5010163;28;20033;-84
2021/07/23 08:51:39;;;;;;;0.52;0.52;;;;;;;27.15;35.61;98960.94;5010182;28;20508;-83
2021/07/23 08:54:09;;;;;;;0.15;0.15;;;;;;;27.13;35.61;98955.81;5010012;28;20038;-82
2021/07/23 08:56:47;;;;;;;0.40;0.28;;;;;;;27.20;35.44;98954.28;5009590;28;20033;-82
2021/07/23 08:59:18;;;;;;;0.10;0.10;;;;;;;27.33;35.91;98945.25;5012632;28;20030;-83
2021/07/23 09:02:08;;;;;;;0.00;0.00;;;;;;;27.48;35.08;98948.81;5016465;28;20040;-85
2021/07/23 09:04:40;;;;;;;0.90;0.52;;;;;;;27.58;34.80;98947.22;5009784;28;20033;-85
2021/07/23 09:07:20;;;;;;;0.10;0.10;;;;;;;27.65;34.23;98946.44;5013364;28;20457;-85
2021/07/23 09:10:06;;;;;;;0.10;0.10;;;;;;;27.67;34.24;98943.28;5013003;28;20030;-83
2021/07/23 09:12:50;;;;;;;0.10;0.10;;;;;;;27.62;34.36;98938.97;5013171;28;20056;-83
2021/07/23 09:15:27;;;;;;;0.00;0.00;;;;;;;27.70;34.55;98943.28;5012819;28;20042;-83
2021/07/23 09:18:02;;;;;;;0.10;0.10;;;;;;;27.73;32.95;98938.97;5012819;28;20034;-85
2021/07/23 09:20:50;;;;;;;0.35;0.35;;;;;;;27.60;32.76;98947.63;5011995;28;20155;-83
2021/07/23 09:24:05;;;;;;;0.22;0.22;;;;;;;27.45;32.68;98943.31;5015482;28;20073;-82
2021/07/23 09:27:11;;;;;;;0.00;0.00;;;;;;;27.33;33.18;98948.00;5012641;28;20053;-84
2021/07/23 09:30:13;;;;;;;0.00;0.00;;;;;;;27.26;33.50;98928.00;5013288;28;20076;-83
2021/07/23 09:33:30;;;;;;;0.10;0.10;;;;;;;27.25;33.14;98918.19;5012088;28;20416;-84
2021/07/23 09:36:21;;;;;;;0.00;0.00;;;;;;;27.23;33.35;98912.28;5013107;28;20050;-85
2021/07/23 09:39:15;;;;;;;0.10;0.10;;;;;;;27.31;33.66;98911.13;5012491;28;20112;-85
2021/07/23 09:42:10;;;;;;;0.00;0.00;;;;;;;27.30;32.38;98909.56;5012798;28;20042;-83
2021/07/23 09:48:39;;;;;;;0.10;0.10;;;;;;;27.55;32.79;98912.31;5013212;28;20739;-84
2021/07/23 09:51:45;;;;;;;0.15;0.15;;;;;;;27.54;32.16;98909.94;5023475;28;20030;-83
2021/07/23 09:54:38;;;;;;;0.10;0.10;;;;;;;27.53;32.63;98909.16;5010511;28;20038;-85
2021/07/23 09:57:06;;;;;;;1.70;1.58;;;;;;;27.54;33.02;98902.50;4994498;28;20029;-82
2021/07/23 10:00:00;;;;;;;0.65;0.63;;;;;;;27.64;33.25;98903.66;4994061;28;20133;-83
2021/07/23 10:02:27;;;;;;;0.30;0.30;;;;;;;27.79;32.49;98904.41;4994299;28;20034;-85
2021/07/23 10:05:01;;;;;;;0.15;0.15;;;;;;;27.85;31.76;98910.31;5010185;28;20030;-83
2021/07/23 10:07:29;;;;;;;0.10;0.10;;;;;;;27.89;33.00;98895.38;4994258;28;20041;-84
2021/07/23 10:09:56;;;;;;;0.30;0.30;;;;;;;28.01;31.92;98898.88;4994160;28;20125;-85
2021/07/23 10:12:24;;;;;;;1.67;1.27;;;;;;;28.08;32.48;98904.38;4994053;28;20504;-83
2021/07/23 10:14:50;;;;;;;;;;;;;;;28.16;31.40;98897.66;4994336;28;20093;-86
2021/07/23 10:17:18;;;;;;;0.20;0.20;;;;;;;28.13;31.88;98900.44;4993864;28;20127;-84
2021/07/23 10:19:45;;;;;;;0.40;0.40;;;;;;;28.15;31.34;98882.34;5010449;28;20042;-84
2021/07/23 10:22:13;;;;;;;1.05;0.65;;;;;;;28.17;30.92;98898.44;4993949;28;20169;-82
2021/07/23 10:24:41;;;;;;;0.32;0.32;;;;;;;28.08;31.13;98883.16;4993462;28;20100;-82
2021/07/23 10:27:08;;;;;;;0.10;0.10;;;;;;;27.98;30.96;98889.44;4994096;28;20061;-82
2021/07/23 10:29:50;;;;;;;0.43;0.43;;;;;;;27.98;31.54;98883.97;5009780;28;20034;-84
2021/07/23 10:32:25;;;;;;;0.10;0.10;;;;;;;28.03;30.22;98874.53;5003544;28;20132;-85
2021/07/23 10:34:55;;;;;;;0.08;0.08;;;;;;;28.05;31.41;98861.97;5011288;28;20414;-82
2021/07/23 10:37:33;;;;;;;2.72;0.77;;;;;;;28.05;30.70;98872.16;5011166;28;20038;-85
2021/07/23 10:40:07;;;;;;;0.32;0.32;;;;;;;28.10;30.81;98877.28;5011336;28;20477;-84
2021/07/23 10:42:40;;;;;;;0.10;0.10;;;;;;;28.12;30.39;98869.41;5011135;28;20026;-85
2021/07/23 10:45:17;;;;;;;0.57;0.57;;;;;;;28.20;30.61;98861.91;5011396;28;20030;-85
2021/07/23 10:47:51;;;;;;;0.45;0.20;;;;;;;28.26;30.52;98858.34;5010712;28;20029;-84
2021/07/23 10:50:26;;;;;;;0.10;0.10;;;;;;;28.24;29.25;98859.91;5011234;28;20476;-83
2021/07/23 10:52:54;;;;;;;0.00;0.00;;;;;;;28.22;29.87;98851.28;5010883;28;20030;-84
2021/07/23 10:55:29;;;;;;;0.28;0.28;;;;;;;28.22;30.34;98854.84;5011165;28;20040;-83
2021/07/23 10:58:09;;;;;;;1.10;1.10;;;;;;;28.28;31.53;98855.97;5010902;28;20018;-83
2021/07/23 11:00:50;;;;;;;0.77;0.77;;;;;;;28.40;30.46;98842.94;5010857;28;20030;-85
2021/07/23 11:03:37;;;;;;;1.95;1.40;;;;;;;28.54;31.28;98840.09;5010990;28;20100;-83
2021/07/23 11:06:16;;;;;;;0.10;0.10;;;;;;;28.58;30.39;98832.59;5010707;28;20405;-84
2021/07/23 11:08:52;;;;;;;0.30;0.30;;;;;;;28.66;30.92;98843.56;5010455;28;20642;-85
2021/07/23 11:11:20;;;;;;;0.30;0.30;;;;;;;28.72;30.48;98836.47;5010692;28;20485;-83
2021/07/23 11:13:46;;;;;;;0.90;0.90;;;;;;;28.70;29.28;98841.63;5010374;28;20034;-84
2021/07/23 11:16:18;;;;;;;1.75;0.63;;;;;;;28.61;29.59;98831.00;5010541;28;20072;-85
2021/07/23 11:18:51;;;;;;;0.00;0.00;;;;;;;28.62;30.04;98826.31;5010326;28;20022;-82
2021/07/23 11:21:17;;;;;;;0.08;0.08;;;;;;;28.59;30.25;98828.66;5010626;28;20035;-85
2021/07/23 11:23:44;;;;;;;1.10;0.85;;;;;;;28.59;30.36;98825.91;5010476;28;20029;-82
2021/07/23 11:26:11;;;;;;;0.20;0.20;;;;;;;28.53;30.05;98824.00;5010267;28;20050;-85
2021/07/23 11:28:52;;;;;;;0.90;0.43;;;;;;;28.44;30.21;98824.44;5009356;28;20076;-83
2021/07/23 11:31:31;;;;;;;0.98;0.63;;;;;;;28.47;30.52;98815.41;5010321;28;20068;-84
2021/07/23 11:33:58;;;;;;;0.32;0.30;;;;;;;28.48;30.85;98822.47;5010094;28;20112;-84
2021/07/23 11:36:38;;;;;;;0.20;0.20;;;;;;;28.43;31.10;98817.41;5010402;28;20033;-82
2021/07/23 11:39:08;;;;;;;0.30;0.30;;;;;;;28.44;31.67;98813.44;5010253;28;20029;-83
2021/07/23 11:41:34;;;;;;;0.77;0.75;;;;;;;28.50;30.99;98806.31;5010216;28;20022;-87
2021/07/23 11:44:08;;;;;;;0.43;0.43;;;;;;;28.49;30.96;98809.50;5011798;28;20060;-82